sensor_id;sensor_type;location;lat;lon;timestamp;temperature;humidity
14749;DHT22;7466;53.574;9.976;2023-11-18T00:00:06;4.50;99.90
14749;DHT22;7466;53.574;9.976;2023-11-18T00:02:37;4.50;99.90
14749;DHT22;7466;53.574;9.976;2023-11-18T00:05:06;4.50;99.90
14749;DHT22;7466;53.574;9.976;2023-11-18T00:07:33;4.50;99.90
14749;DHT22;7466;53.574;9.976;2023-11-18T00:10:00;4.50;99.90
14749;DHT22;7466;53.574;9.976;2023-11-18T00:12:27;4.50;99.90
14749;DHT22;7466;53.574;9.976;2023-11-18T00:14:54;4.50;99.90
14749;DHT22;7466;53.574;9.976;2023-11-18T00:17:20;4.50;99.90
14749;DHT22;7466;53.574;9.976;2023-11-18T00:19:48;4.50;99.90
14749;DHT22;7466;53.574;9.976;2023-11-18T00:22:16;4.60;99.90
14749;DHT22;7466;53.574;9.976;2023-11-18T00:24:43;4.60;99.90
14749;DHT22;7466;53.574;9.976;2023-11-18T00:27:10;4.60;99.90
14749;DHT22;7466;53.574;9.976;2023-11-18T00:29:37;4.50;99.90
14749;DHT22;7466;53.574;9.976;2023-11-18T00:32:04;4.50;99.90
14749;DHT22;7466;53.574;9.976;2023-11-18T00:34:32;4.50;99.90
14749;DHT22;7466;53.574;9.976;2023-11-18T00:36:59;4.50;99.90
14749;DHT22;7466;53.574;9.976;2023-11-18T00:39:27;4.50;99.90
14749;DHT22;7466;53.574;9.976;2023-11-18T00:41:54;4.50;99.90
14749;DHT22;7466;53.574;9.976;2023-11-18T00:44:22;4.50;99.90
14749;DHT22;7466;53.574;9.976;2023-11-18T00:46:49;4.50;99.90
14749;DHT22;7466;53.574;9.976;2023-11-18T00:49:15;4.60;99.90
14749;DHT22;7466;53.574;9.976;2023-11-18T00:51:42;4.60;99.90
14749;DHT22;7466;53.574;9.976;2023-11-18T00:54:09;4.50;99.90
14749;DHT22;7466;53.574;9.976;2023-11-18T00:56:38;4.50;99.90
14749;DHT22;7466;53.574;9.976;2023-11-18T00:59:05;4.50;99.90
14749;DHT22;7466;53.574;9.976;2023-11-18T01:01:32;4.50;99.90
14749;DHT22;7466;53.574;9.976;2023-11-18T01:03:58;4.50;99.90
14749;DHT22;7466;53.574;9.976;2023-11-18T01:06:25;4.50;99.90
14749;DHT22;7466;53.574;9.976;2023-11-18T01:08:52;4.40;99.90
14749;DHT22;7466;53.574;9.976;2023-11-18T01:11:19;4.50;99.90
14749;DHT22;7466;53.574;9.976;2023-11-18T01:13:49;4.50;99.90
14749;DHT22;7466;53.574;9.976;2023-11-18T01:16:16;4.50;99.90
14749;DHT22;7466;53.574;9.976;2023-11-18T01:18:43;4.50;99.90
14749;DHT22;7466;53.574;9.976;2023-11-18T01:21:10;4.50;99.90
14749;DHT22;7466;53.574;9.976;2023-11-18T01:23:37;4.50;99.90
14749;DHT22;7466;53.574;9.976;2023-11-18T01:26:05;4.50;99.90
14749;DHT22;7466;53.574;9.976;2023-11-18T01:28:32;4.60;99.90
14749;DHT22;7466;53.574;9.976;2023-11-18T01:31:03;4.60;99.90
14749;DHT22;7466;53.574;9.976;2023-11-18T01:33:30;4.60;99.90
14749;DHT22;7466;53.574;9.976;2023-11-18T01:35:58;4.60;99.90
14749;DHT22;7466;53.574;9.976;2023-11-18T01:38:25;4.60;99.90
14749;DHT22;7466;53.574;9.976;2023-11-18T01:40:52;4.70;99.90
14749;DHT22;7466;53.574;9.976;2023-11-18T01:43:19;4.60;99.90
14749;DHT22;7466;53.574;9.976;2023-11-18T01:45:47;4.60;99.90
14749;DHT22;7466;53.574;9.976;2023-11-18T01:48:16;4.50;99.90
14749;DHT22;7466;53.574;9.976;2023-11-18T01:50:43;4.60;99.90
14749;DHT22;7466;53.574;9.976;2023-11-18T01:53:13;4.60;99.90
14749;DHT22;7466;53.574;9.976;2023-11-18T01:55:40;4.60;99.90
14749;DHT22;7466;53.574;9.976;2023-11-18T01:58:07;4.60;99.90
14749;DHT22;7466;53.574;9.976;2023-11-18T02:00:37;4.60;99.90
14749;DHT22;7466;53.574;9.976;2023-11-18T02:03:05;4.60;99.90
14749;DHT22;7466;53.574;9.976;2023-11-18T02:05:33;4.70;99.90
14749;DHT22;7466;53.574;9.976;2023-11-18T02:08:01;4.60;99.90
14749;DHT22;7466;53.574;9.976;2023-11-18T02:10:30;4.70;99.90
14749;DHT22;7466;53.574;9.976;2023-11-18T02:13:03;4.70;99.90
14749;DHT22;7466;53.574;9.976;2023-11-18T02:15:34;4.70;99.90
14749;DHT22;7466;53.574;9.976;2023-11-18T02:18:03;4.60;99.90
14749;DHT22;7466;53.574;9.976;2023-11-18T02:20:30;4.60;99.90
14749;DHT22;7466;53.574;9.976;2023-11-18T02:23:00;4.60;99.90
14749;DHT22;7466;53.574;9.976;2023-11-18T02:25:29;4.60;99.90
14749;DHT22;7466;53.574;9.976;2023-11-18T02:27:57;4.60;99.90
14749;DHT22;7466;53.574;9.976;2023-11-18T02:30:24;4.60;99.90
14749;DHT22;7466;53.574;9.976;2023-11-18T02:32:58;4.70;99.90
14749;DHT22;7466;53.574;9.976;2023-11-18T02:35:30;4.70;99.90
14749;DHT22;7466;53.574;9.976;2023-11-18T02:38:01;4.70;99.90
14749;DHT22;7466;53.574;9.976;2023-11-18T02:40:33;4.60;99.90
14749;DHT22;7466;53.574;9.976;2023-11-18T02:43:03;4.70;99.90
14749;DHT22;7466;53.574;9.976;2023-11-18T02:45:32;4.60;99.90
14749;DHT22;7466;53.574;9.976;2023-11-18T02:47:59;4.60;99.90
14749;DHT22;7466;53.574;9.976;2023-11-18T02:50:26;4.60;99.90
14749;DHT22;7466;53.574;9.976;2023-11-18T02:52:53;4.60;99.90
14749;DHT22;7466;53.574;9.976;2023-11-18T02:55:20;4.60;99.90
14749;DHT22;7466;53.574;9.976;2023-11-18T02:57:48;4.60;99.90
14749;DHT22;7466;53.574;9.976;2023-11-18T03:00:18;4.60;99.90
14749;DHT22;7466;53.574;9.976;2023-11-18T03:02:47;4.60;99.90
14749;DHT22;7466;53.574;9.976;2023-11-18T03:05:17;4.50;99.90
14749;DHT22;7466;53.574;9.976;2023-11-18T03:07:44;4.50;99.90
14749;DHT22;7466;53.574;9.976;2023-11-18T03:10:12;4.50;99.90
14749;DHT22;7466;53.574;9.976;2023-11-18T03:12:46;4.40;99.90
14749;DHT22;7466;53.574;9.976;2023-11-18T03:15:13;4.30;99.90
14749;DHT22;7466;53.574;9.976;2023-11-18T03:17:43;4.30;99.90
14749;DHT22;7466;53.574;9.976;2023-11-18T03:20:11;4.40;99.90
14749;DHT22;7466;53.574;9.976;2023-11-18T03:22:40;4.30;99.90
14749;DHT22;7466;53.574;9.976;2023-11-18T03:25:07;4.30;99.90
14749;DHT22;7466;53.574;9.976;2023-11-18T03:27:34;4.20;99.90
14749;DHT22;7466;53.574;9.976;2023-11-18T03:30:01;4.20;99.90
14749;DHT22;7466;53.574;9.976;2023-11-18T03:32:29;4.10;99.90
14749;DHT22;7466;53.574;9.976;2023-11-18T03:34:58;4.20;99.90
14749;DHT22;7466;53.574;9.976;2023-11-18T03:37:25;4.20;99.90
14749;DHT22;7466;53.574;9.976;2023-11-18T03:39:52;4.10;99.90
14749;DHT22;7466;53.574;9.976;2023-11-18T03:42:20;4.10;99.90
14749;DHT22;7466;53.574;9.976;2023-11-18T03:44:47;4.10;99.90
14749;DHT22;7466;53.574;9.976;2023-11-18T03:47:14;4.10;99.90
14749;DHT22;7466;53.574;9.976;2023-11-18T03:49:41;4.00;99.90
14749;DHT22;7466;53.574;9.976;2023-11-18T03:52:09;4.00;99.90
14749;DHT22;7466;53.574;9.976;2023-11-18T03:54:36;4.00;99.90
14749;DHT22;7466;53.574;9.976;2023-11-18T03:57:02;4.00;99.90
14749;DHT22;7466;53.574;9.976;2023-11-18T03:59:30;4.00;99.90
14749;DHT22;7466;53.574;9.976;2023-11-18T04:01:57;3.90;99.90
14749;DHT22;7466;53.574;9.976;2023-11-18T04:04:24;3.90;99.90
14749;DHT22;7466;53.574;9.976;2023-11-18T04:06:51;4.00;99.90
14749;DHT22;7466;53.574;9.976;2023-11-18T04:09:19;3.90;99.90
14749;DHT22;7466;53.574;9.976;2023-11-18T04:11:46;3.90;99.90
14749;DHT22;7466;53.574;9.976;2023-11-18T04:14:13;3.80;99.90
14749;DHT22;7466;53.574;9.976;2023-11-18T04:16:41;3.90;99.90
14749;DHT22;7466;53.574;9.976;2023-11-18T04:19:08;3.90;99.90
14749;DHT22;7466;53.574;9.976;2023-11-18T04:21:34;4.00;99.90
14749;DHT22;7466;53.574;9.976;2023-11-18T04:24:01;4.00;99.90
14749;DHT22;7466;53.574;9.976;2023-11-18T04:26:29;4.00;99.90
14749;DHT22;7466;53.574;9.976;2023-11-18T04:28:57;4.00;99.90
14749;DHT22;7466;53.574;9.976;2023-11-18T04:31:23;4.00;99.90
14749;DHT22;7466;53.574;9.976;2023-11-18T04:33:50;4.00;99.90
14749;DHT22;7466;53.574;9.976;2023-11-18T04:36:17;4.00;99.90
14749;DHT22;7466;53.574;9.976;2023-11-18T04:38:44;4.00;99.90
14749;DHT22;7466;53.574;9.976;2023-11-18T04:41:11;4.00;99.90
14749;DHT22;7466;53.574;9.976;2023-11-18T04:43:39;3.90;99.90
14749;DHT22;7466;53.574;9.976;2023-11-18T04:46:07;4.00;99.90
14749;DHT22;7466;53.574;9.976;2023-11-18T04:48:34;3.90;99.90
14749;DHT22;7466;53.574;9.976;2023-11-18T04:51:01;3.90;99.90
14749;DHT22;7466;53.574;9.976;2023-11-18T04:53:27;3.80;99.90
14749;DHT22;7466;53.574;9.976;2023-11-18T04:55:54;3.80;99.90
14749;DHT22;7466;53.574;9.976;2023-11-18T04:58:21;3.70;99.90
14749;DHT22;7466;53.574;9.976;2023-11-18T05:00:49;3.70;99.90
14749;DHT22;7466;53.574;9.976;2023-11-18T05:03:17;3.60;99.90
14749;DHT22;7466;53.574;9.976;2023-11-18T05:05:43;3.50;99.90
14749;DHT22;7466;53.574;9.976;2023-11-18T05:08:18;3.50;99.90
14749;DHT22;7466;53.574;9.976;2023-11-18T05:10:46;3.50;99.90
14749;DHT22;7466;53.574;9.976;2023-11-18T05:13:13;3.50;99.90
14749;DHT22;7466;53.574;9.976;2023-11-18T05:15:42;3.50;99.90
14749;DHT22;7466;53.574;9.976;2023-11-18T05:18:12;3.50;99.90
14749;DHT22;7466;53.574;9.976;2023-11-18T05:20:40;3.40;99.90
14749;DHT22;7466;53.574;9.976;2023-11-18T05:23:07;3.30;99.90
14749;DHT22;7466;53.574;9.976;2023-11-18T05:25:35;3.30;99.90
14749;DHT22;7466;53.574;9.976;2023-11-18T05:28:02;3.30;99.90
14749;DHT22;7466;53.574;9.976;2023-11-18T05:30:30;3.30;99.90
14749;DHT22;7466;53.574;9.976;2023-11-18T05:32:57;3.30;99.90
14749;DHT22;7466;53.574;9.976;2023-11-18T05:35:26;3.30;99.90
14749;DHT22;7466;53.574;9.976;2023-11-18T05:37:54;3.30;99.90
14749;DHT22;7466;53.574;9.976;2023-11-18T05:40:21;3.30;99.90
14749;DHT22;7466;53.574;9.976;2023-11-18T05:42:48;3.30;99.90
14749;DHT22;7466;53.574;9.976;2023-11-18T05:45:17;3.30;99.90
14749;DHT22;7466;53.574;9.976;2023-11-18T05:47:53;3.30;99.90
14749;DHT22;7466;53.574;9.976;2023-11-18T05:50:20;3.30;99.90
14749;DHT22;7466;53.574;9.976;2023-11-18T05:52:48;3.30;99.90
14749;DHT22;7466;53.574;9.976;2023-11-18T05:55:15;3.30;99.90
14749;DHT22;7466;53.574;9.976;2023-11-18T05:57:42;3.30;99.90
14749;DHT22;7466;53.574;9.976;2023-11-18T06:00:11;3.30;99.90
14749;DHT22;7466;53.574;9.976;2023-11-18T06:02:41;3.30;99.90
14749;DHT22;7466;53.574;9.976;2023-11-18T06:05:08;3.30;99.90
14749;DHT22;7466;53.574;9.976;2023-11-18T06:07:35;3.30;99.90
14749;DHT22;7466;53.574;9.976;2023-11-18T06:10:04;3.30;99.90
14749;DHT22;7466;53.574;9.976;2023-11-18T06:12:32;3.30;99.90
14749;DHT22;7466;53.574;9.976;2023-11-18T06:14:59;3.40;99.90
14749;DHT22;7466;53.574;9.976;2023-11-18T06:17:26;3.40;99.90
14749;DHT22;7466;53.574;9.976;2023-11-18T06:19:53;3.40;99.90
14749;DHT22;7466;53.574;9.976;2023-11-18T06:22:20;3.40;99.90
14749;DHT22;7466;53.574;9.976;2023-11-18T06:24:46;3.40;99.90
14749;DHT22;7466;53.574;9.976;2023-11-18T06:27:15;3.40;99.90
14749;DHT22;7466;53.574;9.976;2023-11-18T06:29:43;3.40;99.90
14749;DHT22;7466;53.574;9.976;2023-11-18T06:32:10;3.40;99.90
14749;DHT22;7466;53.574;9.976;2023-11-18T06:34:37;3.30;99.90
14749;DHT22;7466;53.574;9.976;2023-11-18T06:37:14;3.30;99.90
14749;DHT22;7466;53.574;9.976;2023-11-18T06:39:41;3.30;99.90
14749;DHT22;7466;53.574;9.976;2023-11-18T06:42:11;3.30;99.90
14749;DHT22;7466;53.574;9.976;2023-11-18T06:44:39;3.30;99.90
14749;DHT22;7466;53.574;9.976;2023-11-18T06:47:06;3.30;99.90
14749;DHT22;7466;53.574;9.976;2023-11-18T06:49:32;3.40;99.90
14749;DHT22;7466;53.574;9.976;2023-11-18T06:51:59;3.40;99.90
14749;DHT22;7466;53.574;9.976;2023-11-18T06:54:28;3.40;99.90
14749;DHT22;7466;53.574;9.976;2023-11-18T06:56:55;3.40;99.90
14749;DHT22;7466;53.574;9.976;2023-11-18T06:59:22;3.40;99.90
14749;DHT22;7466;53.574;9.976;2023-11-18T07:01:50;3.50;99.90
14749;DHT22;7466;53.574;9.976;2023-11-18T07:04:17;3.50;99.90
14749;DHT22;7466;53.574;9.976;2023-11-18T07:06:44;3.50;99.90
14749;DHT22;7466;53.574;9.976;2023-11-18T07:09:11;3.60;99.90
14749;DHT22;7466;53.574;9.976;2023-11-18T07:11:43;3.60;99.90
14749;DHT22;7466;53.574;9.976;2023-11-18T07:14:10;3.70;99.90
14749;DHT22;7466;53.574;9.976;2023-11-18T07:16:38;3.70;99.90
14749;DHT22;7466;53.574;9.976;2023-11-18T07:19:07;3.80;99.90
14749;DHT22;7466;53.574;9.976;2023-11-18T07:21:35;3.90;99.90
14749;DHT22;7466;53.574;9.976;2023-11-18T07:24:02;3.90;99.90
14749;DHT22;7466;53.574;9.976;2023-11-18T07:26:29;4.00;99.90
14749;DHT22;7466;53.574;9.976;2023-11-18T07:28:56;4.10;99.90
14749;DHT22;7466;53.574;9.976;2023-11-18T07:31:22;4.10;99.90
14749;DHT22;7466;53.574;9.976;2023-11-18T07:33:50;4.20;99.90
14749;DHT22;7466;53.574;9.976;2023-11-18T07:36:19;4.20;99.90
14749;DHT22;7466;53.574;9.976;2023-11-18T07:38:46;4.20;99.90
14749;DHT22;7466;53.574;9.976;2023-11-18T07:41:13;4.20;99.90
14749;DHT22;7466;53.574;9.976;2023-11-18T07:43:49;4.30;99.90
14749;DHT22;7466;53.574;9.976;2023-11-18T07:46:16;4.30;99.90
14749;DHT22;7466;53.574;9.976;2023-11-18T07:48:43;4.40;99.90
14749;DHT22;7466;53.574;9.976;2023-11-18T07:51:11;4.40;99.90
14749;DHT22;7466;53.574;9.976;2023-11-18T07:53:41;4.40;99.90
14749;DHT22;7466;53.574;9.976;2023-11-18T07:56:08;4.40;99.90
14749;DHT22;7466;53.574;9.976;2023-11-18T07:58:36;4.50;99.90
14749;DHT22;7466;53.574;9.976;2023-11-18T08:01:03;4.60;99.90
14749;DHT22;7466;53.574;9.976;2023-11-18T08:03:32;4.70;99.90
14749;DHT22;7466;53.574;9.976;2023-11-18T08:05:59;4.80;99.90
14749;DHT22;7466;53.574;9.976;2023-11-18T08:08:27;5.00;99.90
14749;DHT22;7466;53.574;9.976;2023-11-18T08:10:55;5.20;99.90
14749;DHT22;7466;53.574;9.976;2023-11-18T08:13:22;5.20;99.90
14749;DHT22;7466;53.574;9.976;2023-11-18T08:15:49;5.10;99.90
14749;DHT22;7466;53.574;9.976;2023-11-18T08:18:16;5.00;99.90
14749;DHT22;7466;53.574;9.976;2023-11-18T08:20:43;5.10;99.90
14749;DHT22;7466;53.574;9.976;2023-11-18T08:23:10;5.10;99.90
14749;DHT22;7466;53.574;9.976;2023-11-18T08:25:37;5.20;99.90
14749;DHT22;7466;53.574;9.976;2023-11-18T08:28:07;5.30;99.90
14749;DHT22;7466;53.574;9.976;2023-11-18T08:30:37;5.20;99.90
14749;DHT22;7466;53.574;9.976;2023-11-18T08:33:04;5.20;99.90
14749;DHT22;7466;53.574;9.976;2023-11-18T08:35:34;5.20;99.90
14749;DHT22;7466;53.574;9.976;2023-11-18T08:38:01;5.10;99.90
14749;DHT22;7466;53.574;9.976;2023-11-18T08:40:29;5.10;99.90
14749;DHT22;7466;53.574;9.976;2023-11-18T08:42:56;5.10;99.90
14749;DHT22;7466;53.574;9.976;2023-11-18T08:45:26;5.00;99.90
14749;DHT22;7466;53.574;9.976;2023-11-18T08:47:54;5.00;99.90
14749;DHT22;7466;53.574;9.976;2023-11-18T08:50:22;4.90;99.90
14749;DHT22;7466;53.574;9.976;2023-11-18T08:52:51;4.90;99.90
14749;DHT22;7466;53.574;9.976;2023-11-18T08:55:23;4.80;99.90
14749;DHT22;7466;53.574;9.976;2023-11-18T08:57:52;4.80;99.90
14749;DHT22;7466;53.574;9.976;2023-11-18T09:00:26;4.90;99.90
14749;DHT22;7466;53.574;9.976;2023-11-18T09:03:11;4.90;99.90
14749;DHT22;7466;53.574;9.976;2023-11-18T09:05:43;5.00;99.90
14749;DHT22;7466;53.574;9.976;2023-11-18T09:08:23;5.00;99.90
14749;DHT22;7466;53.574;9.976;2023-11-18T09:10:50;5.10;99.90
14749;DHT22;7466;53.574;9.976;2023-11-18T09:13:19;5.10;99.90
14749;DHT22;7466;53.574;9.976;2023-11-18T09:15:48;5.10;99.90
14749;DHT22;7466;53.574;9.976;2023-11-18T09:18:15;5.00;99.90
14749;DHT22;7466;53.574;9.976;2023-11-18T09:20:43;5.10;99.90
14749;DHT22;7466;53.574;9.976;2023-11-18T09:23:11;5.10;99.90
14749;DHT22;7466;53.574;9.976;2023-11-18T09:25:38;5.10;99.90
14749;DHT22;7466;53.574;9.976;2023-11-18T09:28:07;5.10;99.90
14749;DHT22;7466;53.574;9.976;2023-11-18T09:30:36;5.10;99.90
14749;DHT22;7466;53.574;9.976;2023-11-18T09:33:17;5.10;99.90
14749;DHT22;7466;53.574;9.976;2023-11-18T09:35:52;5.20;99.90
14749;DHT22;7466;53.574;9.976;2023-11-18T09:38:22;5.20;99.90
14749;DHT22;7466;53.574;9.976;2023-11-18T09:40:51;5.20;99.90
14749;DHT22;7466;53.574;9.976;2023-11-18T09:43:19;5.30;99.90
14749;DHT22;7466;53.574;9.976;2023-11-18T09:45:49;5.40;99.90
14749;DHT22;7466;53.574;9.976;2023-11-18T09:48:19;5.50;99.90
14749;DHT22;7466;53.574;9.976;2023-11-18T09:50:52;5.60;99.90
14749;DHT22;7466;53.574;9.976;2023-11-18T09:53:19;5.70;99.90
14749;DHT22;7466;53.574;9.976;2023-11-18T09:55:57;5.60;99.90
14749;DHT22;7466;53.574;9.976;2023-11-18T09:58:34;5.70;99.90
14749;DHT22;7466;53.574;9.976;2023-11-18T10:01:06;5.80;99.90
14749;DHT22;7466;53.574;9.976;2023-11-18T10:03:40;5.80;99.90
14749;DHT22;7466;53.574;9.976;2023-11-18T10:06:12;5.70;99.90
14749;DHT22;7466;53.574;9.976;2023-11-18T10:08:40;5.70;99.90
14749;DHT22;7466;53.574;9.976;2023-11-18T10:11:11;5.80;99.90
14749;DHT22;7466;53.574;9.976;2023-11-18T10:13:39;5.90;99.90
14749;DHT22;7466;53.574;9.976;2023-11-18T10:16:09;5.80;99.90
14749;DHT22;7466;53.574;9.976;2023-11-18T10:18:40;5.90;99.90
14749;DHT22;7466;53.574;9.976;2023-11-18T10:21:14;6.00;99.90
14749;DHT22;7466;53.574;9.976;2023-11-18T10:23:58;6.10;99.90
14749;DHT22;7466;53.574;9.976;2023-11-18T10:26:27;6.30;99.90
14749;DHT22;7466;53.574;9.976;2023-11-18T10:28:55;6.50;99.90
14749;DHT22;7466;53.574;9.976;2023-11-18T10:31:32;6.60;99.90
14749;DHT22;7466;53.574;9.976;2023-11-18T10:34:02;6.60;99.90
14749;DHT22;7466;53.574;9.976;2023-11-18T10:36:30;7.00;99.90
14749;DHT22;7466;53.574;9.976;2023-11-18T10:38:59;7.20;99.90
14749;DHT22;7466;53.574;9.976;2023-11-18T10:41:40;7.30;99.90
14749;DHT22;7466;53.574;9.976;2023-11-18T10:44:11;7.50;99.90
14749;DHT22;7466;53.574;9.976;2023-11-18T10:46:41;7.70;99.90
14749;DHT22;7466;53.574;9.976;2023-11-18T10:49:20;7.60;99.90
14749;DHT22;7466;53.574;9.976;2023-11-18T10:51:47;7.60;99.90
14749;DHT22;7466;53.574;9.976;2023-11-18T10:54:16;7.90;99.90
14749;DHT22;7466;53.574;9.976;2023-11-18T10:56:49;7.90;99.90
14749;DHT22;7466;53.574;9.976;2023-11-18T10:59:16;7.70;99.90
14749;DHT22;7466;53.574;9.976;2023-11-18T11:01:44;7.60;99.90
14749;DHT22;7466;53.574;9.976;2023-11-18T11:04:15;7.70;99.90
14749;DHT22;7466;53.574;9.976;2023-11-18T11:06:48;7.40;99.90
14749;DHT22;7466;53.574;9.976;2023-11-18T11:09:19;7.70;99.90
14749;DHT22;7466;53.574;9.976;2023-11-18T11:11:53;7.50;99.90
14749;DHT22;7466;53.574;9.976;2023-11-18T11:14:21;7.70;99.90
14749;DHT22;7466;53.574;9.976;2023-11-18T11:16:53;7.70;99.90
14749;DHT22;7466;53.574;9.976;2023-11-18T11:19:25;7.80;99.90
14749;DHT22;7466;53.574;9.976;2023-11-18T11:22:03;7.90;99.90
14749;DHT22;7466;53.574;9.976;2023-11-18T11:24:40;7.90;99.90
14749;DHT22;7466;53.574;9.976;2023-11-18T11:27:21;7.80;99.90
14749;DHT22;7466;53.574;9.976;2023-11-18T11:29:59;8.10;99.90
14749;DHT22;7466;53.574;9.976;2023-11-18T11:32:34;7.90;99.90
14749;DHT22;7466;53.574;9.976;2023-11-18T11:35:08;7.60;99.90
14749;DHT22;7466;53.574;9.976;2023-11-18T11:37:46;7.60;99.90
14749;DHT22;7466;53.574;9.976;2023-11-18T11:40:14;7.50;99.90
14749;DHT22;7466;53.574;9.976;2023-11-18T11:42:49;7.40;99.90
14749;DHT22;7466;53.574;9.976;2023-11-18T11:45:21;7.30;99.90
14749;DHT22;7466;53.574;9.976;2023-11-18T11:47:54;7.40;99.90
14749;DHT22;7466;53.574;9.976;2023-11-18T11:50:54;7.90;99.90
14749;DHT22;7466;53.574;9.976;2023-11-18T11:53:26;7.80;99.90
14749;DHT22;7466;53.574;9.976;2023-11-18T11:55:57;7.70;99.90
14749;DHT22;7466;53.574;9.976;2023-11-18T11:58:31;7.50;99.90
14749;DHT22;7466;53.574;9.976;2023-11-18T12:00:59;7.20;99.90
14749;DHT22;7466;53.574;9.976;2023-11-18T12:03:33;7.10;99.90
14749;DHT22;7466;53.574;9.976;2023-11-18T12:06:05;6.90;99.90
14749;DHT22;7466;53.574;9.976;2023-11-18T12:08:36;6.80;99.90
14749;DHT22;7466;53.574;9.976;2023-11-18T12:11:14;6.80;99.90
14749;DHT22;7466;53.574;9.976;2023-11-18T12:14:00;6.70;99.90
14749;DHT22;7466;53.574;9.976;2023-11-18T12:17:02;6.80;99.90
14749;DHT22;7466;53.574;9.976;2023-11-18T12:19:35;6.80;99.90
14749;DHT22;7466;53.574;9.976;2023-11-18T12:22:12;6.70;99.90
14749;DHT22;7466;53.574;9.976;2023-11-18T12:28:15;6.80;99.90
14749;DHT22;7466;53.574;9.976;2023-11-18T12:30:44;6.70;99.90
14749;DHT22;7466;53.574;9.976;2023-11-18T12:33:19;6.60;99.90
14749;DHT22;7466;53.574;9.976;2023-11-18T12:36:16;6.50;99.90
14749;DHT22;7466;53.574;9.976;2023-11-18T12:42:02;6.60;99.90
14749;DHT22;7466;53.574;9.976;2023-11-18T12:44:53;6.60;99.90
14749;DHT22;7466;53.574;9.976;2023-11-18T12:47:28;6.60;99.90
14749;DHT22;7466;53.574;9.976;2023-11-18T12:49:58;6.60;99.90
14749;DHT22;7466;53.574;9.976;2023-11-18T12:52:26;6.60;99.90
14749;DHT22;7466;53.574;9.976;2023-11-18T12:54:53;6.60;99.90
14749;DHT22;7466;53.574;9.976;2023-11-18T12:57:26;6.60;99.90
14749;DHT22;7466;53.574;9.976;2023-11-18T12:59:58;6.60;99.90
14749;DHT22;7466;53.574;9.976;2023-11-18T13:02:25;6.60;99.90
14749;DHT22;7466;53.574;9.976;2023-11-18T13:04:52;6.60;99.90
14749;DHT22;7466;53.574;9.976;2023-11-18T13:07:19;6.60;99.90
14749;DHT22;7466;53.574;9.976;2023-11-18T13:09:47;6.70;99.90
14749;DHT22;7466;53.574;9.976;2023-11-18T13:12:14;6.60;99.90
14749;DHT22;7466;53.574;9.976;2023-11-18T13:14:43;6.60;99.90
14749;DHT22;7466;53.574;9.976;2023-11-18T13:17:13;6.60;99.90
14749;DHT22;7466;53.574;9.976;2023-11-18T13:19:41;6.60;99.90
14749;DHT22;7466;53.574;9.976;2023-11-18T13:22:10;6.60;99.90
14749;DHT22;7466;53.574;9.976;2023-11-18T13:24:38;6.50;99.90
14749;DHT22;7466;53.574;9.976;2023-11-18T13:27:06;6.50;99.90
14749;DHT22;7466;53.574;9.976;2023-11-18T13:29:36;6.50;99.90
14749;DHT22;7466;53.574;9.976;2023-11-18T13:32:05;6.50;99.90
14749;DHT22;7466;53.574;9.976;2023-11-18T13:34:34;6.50;99.90
14749;DHT22;7466;53.574;9.976;2023-11-18T13:37:03;6.50;99.90
14749;DHT22;7466;53.574;9.976;2023-11-18T13:39:31;6.40;99.90
14749;DHT22;7466;53.574;9.976;2023-11-18T13:42:01;6.40;99.90
14749;DHT22;7466;53.574;9.976;2023-11-18T13:44:44;6.40;99.90
14749;DHT22;7466;53.574;9.976;2023-11-18T13:47:11;6.40;99.90
14749;DHT22;7466;53.574;9.976;2023-11-18T13:49:40;6.30;99.90
14749;DHT22;7466;53.574;9.976;2023-11-18T13:52:07;6.20;99.90
14749;DHT22;7466;53.574;9.976;2023-11-18T13:54:35;6.20;99.90
14749;DHT22;7466;53.574;9.976;2023-11-18T13:57:03;6.20;99.90
14749;DHT22;7466;53.574;9.976;2023-11-18T13:59:31;6.20;99.90
14749;DHT22;7466;53.574;9.976;2023-11-18T14:01:59;6.10;99.90
14749;DHT22;7466;53.574;9.976;2023-11-18T14:04:27;6.10;99.90
14749;DHT22;7466;53.574;9.976;2023-11-18T14:06:59;6.10;99.90
14749;DHT22;7466;53.574;9.976;2023-11-18T14:09:27;6.00;99.90
14749;DHT22;7466;53.574;9.976;2023-11-18T14:11:55;6.00;99.90
14749;DHT22;7466;53.574;9.976;2023-11-18T14:14:22;6.00;99.90
14749;DHT22;7466;53.574;9.976;2023-11-18T14:16:50;6.00;99.90
14749;DHT22;7466;53.574;9.976;2023-11-18T14:19:18;6.00;99.90
14749;DHT22;7466;53.574;9.976;2023-11-18T14:21:45;6.00;99.90
14749;DHT22;7466;53.574;9.976;2023-11-18T14:24:13;5.90;99.90
14749;DHT22;7466;53.574;9.976;2023-11-18T14:26:40;5.90;99.90
14749;DHT22;7466;53.574;9.976;2023-11-18T14:29:07;5.90;99.90
14749;DHT22;7466;53.574;9.976;2023-11-18T14:31:34;5.90;99.90
14749;DHT22;7466;53.574;9.976;2023-11-18T14:34:01;5.90;99.90
14749;DHT22;7466;53.574;9.976;2023-11-18T14:36:27;5.90;99.90
14749;DHT22;7466;53.574;9.976;2023-11-18T14:38:54;5.90;99.90
14749;DHT22;7466;53.574;9.976;2023-11-18T14:41:22;5.90;99.90
14749;DHT22;7466;53.574;9.976;2023-11-18T14:43:51;5.90;99.90
14749;DHT22;7466;53.574;9.976;2023-11-18T14:46:18;5.80;99.90
14749;DHT22;7466;53.574;9.976;2023-11-18T14:48:45;5.80;99.90
14749;DHT22;7466;53.574;9.976;2023-11-18T14:51:12;5.80;99.90
14749;DHT22;7466;53.574;9.976;2023-11-18T14:53:39;5.80;99.90
14749;DHT22;7466;53.574;9.976;2023-11-18T14:56:06;5.80;99.90
14749;DHT22;7466;53.574;9.976;2023-11-18T14:58:34;5.80;99.90
14749;DHT22;7466;53.574;9.976;2023-11-18T15:01:02;5.80;99.90
14749;DHT22;7466;53.574;9.976;2023-11-18T15:03:29;5.80;99.90
14749;DHT22;7466;53.574;9.976;2023-11-18T15:05:56;5.70;99.90
14749;DHT22;7466;53.574;9.976;2023-11-18T15:08:23;5.70;99.90
14749;DHT22;7466;53.574;9.976;2023-11-18T15:10:50;5.70;99.90
14749;DHT22;7466;53.574;9.976;2023-11-18T15:13:17;5.70;99.90
14749;DHT22;7466;53.574;9.976;2023-11-18T15:15:45;5.70;99.90
14749;DHT22;7466;53.574;9.976;2023-11-18T15:18:14;5.70;99.90
14749;DHT22;7466;53.574;9.976;2023-11-18T15:20:43;5.70;99.90
14749;DHT22;7466;53.574;9.976;2023-11-18T15:23:10;5.60;99.90
14749;DHT22;7466;53.574;9.976;2023-11-18T15:25:37;5.70;99.90
14749;DHT22;7466;53.574;9.976;2023-11-18T15:28:05;5.60;99.90
14749;DHT22;7466;53.574;9.976;2023-11-18T15:30:35;5.70;99.90
14749;DHT22;7466;53.574;9.976;2023-11-18T15:33:03;5.70;99.90
14749;DHT22;7466;53.574;9.976;2023-11-18T15:35:30;5.70;99.90
14749;DHT22;7466;53.574;9.976;2023-11-18T15:37:57;5.60;99.90
14749;DHT22;7466;53.574;9.976;2023-11-18T15:40:23;5.60;99.90
14749;DHT22;7466;53.574;9.976;2023-11-18T15:42:51;5.60;99.90
14749;DHT22;7466;53.574;9.976;2023-11-18T15:45:19;5.60;99.90
14749;DHT22;7466;53.574;9.976;2023-11-18T15:47:46;5.60;99.90
14749;DHT22;7466;53.574;9.976;2023-11-18T15:50:16;5.50;99.90
14749;DHT22;7466;53.574;9.976;2023-11-18T15:52:44;5.60;99.90
14749;DHT22;7466;53.574;9.976;2023-11-18T15:55:13;5.60;99.90
14749;DHT22;7466;53.574;9.976;2023-11-18T15:57:41;5.60;99.90
14749;DHT22;7466;53.574;9.976;2023-11-18T16:00:10;5.60;99.90
14749;DHT22;7466;53.574;9.976;2023-11-18T16:02:41;5.60;99.90
14749;DHT22;7466;53.574;9.976;2023-11-18T16:05:11;5.60;99.90
14749;DHT22;7466;53.574;9.976;2023-11-18T16:07:40;5.60;99.90
14749;DHT22;7466;53.574;9.976;2023-11-18T16:10:07;5.60;99.90
14749;DHT22;7466;53.574;9.976;2023-11-18T16:12:34;5.60;99.90
14749;DHT22;7466;53.574;9.976;2023-11-18T16:15:01;5.60;99.90
14749;DHT22;7466;53.574;9.976;2023-11-18T16:17:28;5.60;99.90
14749;DHT22;7466;53.574;9.976;2023-11-18T16:19:54;5.60;99.90